Time;durP1;ratioP1;P1;durP2;ratioP2;P2;SDS_P1;SDS_P2;PMS_P1;PMS_P2;Temp;Humidity;BMP_temperature;BMP_pressure;BME280_temperature;BME280_humidity;BME280_pressure;Samples;Min_cycle;Max_cycle;Signal;HPM_P1;HPM_P2
2023/06/09 00:01:20;;;;;;;2.65;2.40;;;;;;;;;;10318619;28;20465;-61
2023/06/09 00:06:22;;;;;;;4.03;2.83;;;;;;;;;;10318608;28;20083;-62
2023/06/09 00:11:22;;;;;;;3.85;2.58;;;;;;;;;;10318505;28;20095;-63
2023/06/09 00:16:24;;;;;;;7.57;2.42;;;;;;;;;;10318155;28;20060;-62
2023/06/09 00:21:25;;;;;;;3.33;2.30;;;;;;;;;;10318226;28;20064;-62
2023/06/09 00:26:25;;;;;;;2.40;2.20;;;;;;;;;;10318173;28;20083;-62
2023/06/09 00:31:23;;;;;;;2.90;2.53;;;;;;;;;;10313567;28;20068;-61
2023/06/09 00:36:21;;;;;;;2.92;2.50;;;;;;;;;;10317857;28;20075;-62
2023/06/09 00:41:20;;;;;;;4.93;2.33;;;;;;;;;;10318747;28;20064;-62
2023/06/09 00:46:20;;;;;;;4.72;2.90;;;;;;;;;;10318097;28;20083;-62
2023/06/09 00:51:18;;;;;;;3.40;2.72;;;;;;;;;;10318583;28;20064;-62
2023/06/09 00:56:18;;;;;;;2.40;2.20;;;;;;;;;;10318127;28;20091;-62
2023/06/09 01:01:16;;;;;;;4.30;2.60;;;;;;;;;;10318235;28;20079;-62
2023/06/09 01:06:26;;;;;;;2.55;2.35;;;;;;;;;;10317303;28;20095;-62
2023/06/09 01:11:30;;;;;;;5.78;2.53;;;;;;;;;;10314079;28;20421;-62
2023/06/09 01:16:31;;;;;;;3.85;2.42;;;;;;;;;;10308539;28;20079;-62
2023/06/09 01:21:35;;;;;;;7.53;2.95;;;;;;;;;;10316388;28;20084;-62
2023/06/09 01:26:38;;;;;;;3.17;2.88;;;;;;;;;;10308003;28;20072;-62
2023/06/09 01:31:37;;;;;;;3.38;2.40;;;;;;;;;;10316087;28;20079;-63
2023/06/09 01:36:36;;;;;;;3.88;3.00;;;;;;;;;;10308615;28;20040;-62
2023/06/09 01:41:35;;;;;;;3.15;2.72;;;;;;;;;;10316401;28;20510;-62
2023/06/09 01:46:34;;;;;;;9.57;3.78;;;;;;;;;;10309552;28;20086;-62
2023/06/09 01:51:36;;;;;;;3.72;3.38;;;;;;;;;;10314045;28;20067;-62
2023/06/09 01:56:38;;;;;;;3.05;2.53;;;;;;;;;;10311923;28;20158;-62
2023/06/09 02:01:37;;;;;;;5.35;3.30;;;;;;;;;;10308146;28;20076;-63
2023/06/09 02:06:37;;;;;;;7.38;3.10;;;;;;;;;;10307019;28;20068;-63
2023/06/09 02:11:37;;;;;;;5.95;2.72;;;;;;;;;;10314994;28;20068;-62
2023/06/09 02:16:36;;;;;;;4.13;2.30;;;;;;;;;;10315233;28;20068;-62
2023/06/09 02:21:36;;;;;;;5.25;2.67;;;;;;;;;;10312988;28;20080;-63
2023/06/09 02:26:35;;;;;;;6.15;2.60;;;;;;;;;;10314993;28;20099;-62
2023/06/09 02:31:36;;;;;;;4.22;2.75;;;;;;;;;;10314370;28;20064;-62
2023/06/09 02:36:37;;;;;;;4.00;3.05;;;;;;;;;;10313937;28;20083;-63
2023/06/09 02:41:36;;;;;;;9.25;3.70;;;;;;;;;;10305539;28;20044;-62
2023/06/09 02:46:35;;;;;;;4.72;3.50;;;;;;;;;;10329687;28;20477;-62
2023/06/09 02:51:34;;;;;;;5.45;3.22;;;;;;;;;;10312475;28;20068;-62
2023/06/09 02:56:34;;;;;;;4.35;2.80;;;;;;;;;;10313261;28;20064;-63
2023/06/09 03:01:34;;;;;;;5.32;3.00;;;;;;;;;;10312693;28;20076;-63
2023/06/09 03:06:36;;;;;;;12.82;4.43;;;;;;;;;;10311983;28;20102;-62
2023/06/09 03:11:38;;;;;;;5.17;3.27;;;;;;;;;;10307089;28;20678;-63
2023/06/09 03:16:37;;;;;;;6.30;3.10;;;;;;;;;;10312130;28;20079;-62
2023/06/09 03:21:37;;;;;;;7.28;3.47;;;;;;;;;;10311612;28;20067;-62
2023/06/09 03:26:36;;;;;;;8.82;4.15;;;;;;;;;;10301163;28;20094;-62
2023/06/09 03:31:35;;;;;;;10.00;4.13;;;;;;;;;;10304991;28;20075;-62
2023/06/09 03:36:35;;;;;;;10.13;4.22;;;;;;;;;;10318782;28;20072;-62
2023/06/09 03:41:36;;;;;;;8.50;4.07;;;;;;;;;;10320202;28;20079;-62
2023/06/09 03:46:36;;;;;;;9.88;4.85;;;;;;;;;;10319523;28;20118;-62
2023/06/09 03:51:35;;;;;;;7.70;4.25;;;;;;;;;;10320643;28;20040;-62
2023/06/09 03:56:34;;;;;;;15.70;5.13;;;;;;;;;;10319035;28;20469;-62
2023/06/09 04:01:33;;;;;;;8.50;4.53;;;;;;;;;;10318639;28;20079;-62
2023/06/09 04:06:32;;;;;;;9.02;4.40;;;;;;;;;;10318518;28;20068;-62
2023/06/09 04:11:32;;;;;;;8.23;4.30;;;;;;;;;;10319642;28;20068;-63
2023/06/09 04:16:30;;;;;;;10.93;5.00;;;;;;;;;;10319325;28;20052;-62
2023/06/09 04:21:32;;;;;;;10.20;4.00;;;;;;;;;;10319883;28;20094;-64
2023/06/09 04:26:32;;;;;;;7.20;4.15;;;;;;;;;;10319782;28;20072;-62
2023/06/09 04:31:33;;;;;;;11.77;4.07;;;;;;;;;;10310765;28;20052;-62
2023/06/09 04:36:35;;;;;;;8.25;4.03;;;;;;;;;;10316853;28;20143;-62
2023/06/09 04:41:34;;;;;;;8.10;3.97;;;;;;;;;;10309095;28;20550;-62
2023/06/09 04:46:37;;;;;;;5.15;3.30;;;;;;;;;;10307383;28;20528;-62
2023/06/09 04:51:46;;;;;;;9.13;3.90;;;;;;;;;;10332727;28;20087;-62
2023/06/09 04:56:52;;;;;;;10.00;4.18;;;;;;;;;;10309191;28;20520;-62
2023/06/09 05:01:54;;;;;;;18.10;4.57;;;;;;;;;;10318499;28;20083;-63
2023/06/09 05:06:55;;;;;;;6.15;3.85;;;;;;;;;;10316695;28;20083;-62
2023/06/09 05:11:53;;;;;;;15.77;4.13;;;;;;;;;;10316791;28;20072;-62
2023/06/09 05:16:53;;;;;;;16.15;3.83;;;;;;;;;;10316811;28;20083;-62
2023/06/09 05:21:56;;;;;;;10.00;4.65;;;;;;;;;;10316555;28;20083;-61
2023/06/09 05:26:55;;;;;;;6.18;3.38;;;;;;;;;;10316043;28;20076;-61
2023/06/09 05:31:54;;;;;;;6.28;3.50;;;;;;;;;;10308039;28;20048;-62
2023/06/09 05:36:55;;;;;;;9.07;4.63;;;;;;;;;;10315482;28;20490;-63
2023/06/09 05:41:53;;;;;;;10.30;4.30;;;;;;;;;;10313889;28;20040;-62
2023/06/09 05:46:52;;;;;;;5.80;4.47;;;;;;;;;;10316599;28;20075;-63
2023/06/09 05:51:50;;;;;;;6.70;4.35;;;;;;;;;;10317315;28;20091;-63
2023/06/09 05:56:51;;;;;;;8.85;5.55;;;;;;;;;;10315563;28;20044;-63
2023/06/09 06:01:49;;;;;;;7.72;4.68;;;;;;;;;;10313442;28;20087;-62
2023/06/09 06:06:47;;;;;;;6.78;4.18;;;;;;;;;;10319559;28;20076;-63
2023/06/09 06:11:46;;;;;;;4.78;3.58;;;;;;;;;;10312237;28;20079;-62
2023/06/09 06:16:46;;;;;;;6.50;3.60;;;;;;;;;;10312130;28;20079;-63
2023/06/09 06:21:44;;;;;;;6.28;3.22;;;;;;;;;;10315996;28;20060;-62
2023/06/09 06:26:42;;;;;;;14.95;4.65;;;;;;;;;;10314669;28;20122;-63
2023/06/09 06:31:41;;;;;;;9.23;4.55;;;;;;;;;;10313679;28;20072;-63
2023/06/09 06:36:40;;;;;;;5.22;3.42;;;;;;;;;;10314607;28;20489;-63
2023/06/09 06:41:38;;;;;;;12.43;3.50;;;;;;;;;;10311360;28;20060;-62
2023/06/09 06:46:37;;;;;;;7.55;2.85;;;;;;;;;;10308507;28;20068;-62
2023/06/09 06:51:35;;;;;;;5.15;2.80;;;;;;;;;;10306393;28;20071;-62
2023/06/09 06:56:34;;;;;;;3.30;3.00;;;;;;;;;;10306362;28;20071;-62
2023/06/09 07:01:33;;;;;;;5.63;2.72;;;;;;;;;;10304353;28;20549;-63
2023/06/09 07:06:32;;;;;;;5.43;3.00;;;;;;;;;;10302111;28;20781;-62
2023/06/09 07:11:32;;;;;;;5.53;3.13;;;;;;;;;;10307987;28;20072;-63
2023/06/09 07:16:32;;;;;;;8.05;3.15;;;;;;;;;;10311031;28;20103;-63
2023/06/09 07:21:32;;;;;;;5.18;2.60;;;;;;;;;;10313354;28;20509;-63
2023/06/09 07:26:30;;;;;;;7.32;3.10;;;;;;;;;;10313727;28;20072;-63
2023/06/09 07:31:28;;;;;;;6.72;2.35;;;;;;;;;;10311836;28;20064;-62
2023/06/09 07:36:29;;;;;;;8.85;3.25;;;;;;;;;;10312191;28;20506;-62
2023/06/09 07:41:28;;;;;;;7.78;2.67;;;;;;;;;;10311654;28;20076;-62
2023/06/09 07:46:26;;;;;;;10.93;2.85;;;;;;;;;;10313352;28;20068;-62
2023/06/09 07:51:26;;;;;;;22.65;5.63;;;;;;;;;;10312822;28;20446;-63
2023/06/09 07:56:26;;;;;;;5.43;2.25;;;;;;;;;;10311925;28;20076;-63
2023/06/09 08:01:24;;;;;;;4.40;2.13;;;;;;;;;;10310926;28;20536;-62
2023/06/09 08:06:22;;;;;;;3.03;2.17;;;;;;;;;;10310157;28;20102;-63
2023/06/09 08:11:20;;;;;;;4.82;2.05;;;;;;;;;;10312391;28;20524;-62
2023/06/09 08:16:20;;;;;;;3.60;2.20;;;;;;;;;;10312389;28;20064;-61
2023/06/09 08:21:18;;;;;;;8.30;2.80;;;;;;;;;;10316290;28;20072;-62
2023/06/09 08:26:17;;;;;;;4.57;1.88;;;;;;;;;;10318035;28;20076;-62
2023/06/09 08:31:15;;;;;;;5.82;2.55;;;;;;;;;;10319672;28;20090;-62
2023/06/09 08:36:15;;;;;;;4.13;1.85;;;;;;;;;;10319209;28;20505;-62
2023/06/09 08:41:13;;;;;;;11.38;2.42;;;;;;;;;;10319595;28;20528;-62
2023/06/09 08:46:12;;;;;;;7.40;3.13;;;;;;;;;;10317621;28;20087;-62
2023/06/09 08:51:10;;;;;;;4.25;2.35;;;;;;;;;;10319039;28;20501;-62
2023/06/09 08:56:10;;;;;;;8.13;2.75;;;;;;;;;;10318961;28;20079;-62
2023/06/09 09:01:08;;;;;;;2.35;2.15;;;;;;;;;;10319027;28;20084;-62
2023/06/09 09:06:08;;;;;;;4.82;2.00;;;;;;;;;;10318295;28;20060;-62
2023/06/09 09:11:06;;;;;;;2.65;2.15;;;;;;;;;;10316066;28;20068;-62
2023/06/09 09:16:06;;;;;;;3.15;2.20;;;;;;;;;;10317543;28;20060;-62
2023/06/09 09:21:04;;;;;;;2.50;2.00;;;;;;;;;;10317328;28;20068;-63
2023/06/09 09:26:03;;;;;;;3.30;2.15;;;;;;;;;;10317416;28;20068;-63
2023/06/09 09:31:02;;;;;;;2.55;2.35;;;;;;;;;;10316056;28;20534;-63
2023/06/09 09:36:01;;;;;;;5.72;2.38;;;;;;;;;;10315604;28;20526;-62
2023/06/09 09:41:00;;;;;;;2.50;2.30;;;;;;;;;;10313434;28;20080;-62
2023/06/09 09:46:02;;;;;;;3.17;2.03;;;;;;;;;;10314440;28;20080;-62
2023/06/09 09:51:00;;;;;;;5.78;2.75;;;;;;;;;;10316476;28;20489;-62
2023/06/09 09:56:01;;;;;;;7.28;2.25;;;;;;;;;;10316256;28;20067;-62
2023/06/09 10:01:02;;;;;;;4.68;2.85;;;;;;;;;;10316290;28;20076;-62
2023/06/09 10:06:02;;;;;;;4.82;2.38;;;;;;;;;;10314878;28;20076;-62
2023/06/09 10:11:02;;;;;;;4.15;3.08;;;;;;;;;;10314313;28;20076;-62
2023/06/09 10:16:02;;;;;;;4.95;2.58;;;;;;;;;;10313604;28;20136;-63
2023/06/09 10:21:00;;;;;;;6.65;2.50;;;;;;;;;;10314185;28;20071;-62
2023/06/09 10:25:59;;;;;;;12.40;3.28;;;;;;;;;;10313343;28;20083;-63
2023/06/09 10:30:59;;;;;;;2.60;2.38;;;;;;;;;;10314726;28;20080;-62
2023/06/09 10:35:59;;;;;;;3.95;2.33;;;;;;;;;;10315287;28;20502;-62
2023/06/09 10:41:09;;;;;;;3.58;2.78;;;;;;;;;;10315113;28;20103;-62
2023/06/09 10:46:12;;;;;;;2.75;2.42;;;;;;;;;;10312456;28;20079;-63
2023/06/09 10:51:29;;;;;;;9.30;3.15;;;;;;;;;;10314137;28;20076;-63
2023/06/09 10:56:34;;;;;;;3.15;2.55;;;;;;;;;;10313314;28;20076;-63
2023/06/09 11:01:33;;;;;;;6.40;3.10;;;;;;;;;;10313146;28;20076;-62
2023/06/09 11:06:32;;;;;;;5.82;2.80;;;;;;;;;;10312494;28;20068;-62
2023/06/09 11:11:45;;;;;;;4.10;2.28;;;;;;;;;;10312445;28;20525;-63
2023/06/09 11:16:58;;;;;;;2.53;2.30;;;;;;;;;;10314221;28;20103;-63
2023/06/09 11:22:04;;;;;;;5.57;3.03;;;;;;;;;;10312396;28;20529;-62
2023/06/09 11:27:17;;;;;;;4.00;2.35;;;;;;;;;;10314268;28;20072;-62
2023/06/09 11:32:19;;;;;;;5.15;2.78;;;;;;;;;;10312570;28;20074;-62
2023/06/09 11:37:20;;;;;;;4.65;2.38;;;;;;;;;;10313112;28;20032;-62
2023/06/09 11:42:18;;;;;;;3.83;2.78;;;;;;;;;;10311288;28;20536;-62
2023/06/09 11:47:23;;;;;;;7.40;4.13;;;;;;;;;;10312138;28;20175;-62
2023/06/09 11:52:24;;;;;;;3.65;2.65;;;;;;;;;;10311761;28;20513;-62
2023/06/09 11:57:23;;;;;;;4.63;2.78;;;;;;;;;;10319525;28;20937;-62
2023/06/09 12:02:21;;;;;;;4.57;2.53;;;;;;;;;;10318278;28;20478;-62
2023/06/09 12:07:19;;;;;;;3.72;2.60;;;;;;;;;;10320919;28;20083;-62
2023/06/09 12:12:19;;;;;;;4.82;3.17;;;;;;;;;;10321111;28;20072;-62
2023/06/09 12:17:17;;;;;;;3.72;2.58;;;;;;;;;;10318551;28;20493;-62
2023/06/09 12:22:16;;;;;;;2.75;2.55;;;;;;;;;;10318812;28;20069;-63
2023/06/09 12:27:14;;;;;;;5.43;2.92;;;;;;;;;;10320573;28;20064;-63
2023/06/09 12:32:23;;;;;;;6.18;3.17;;;;;;;;;;10319273;28;20537;-63
2023/06/09 12:37:22;;;;;;;6.32;3.40;;;;;;;;;;10317642;28;20536;-63
2023/06/09 12:42:20;;;;;;;7.07;3.15;;;;;;;;;;10315574;28;20502;-63
2023/06/09 12:47:19;;;;;;;4.00;2.90;;;;;;;;;;10318436;28;20534;-63
2023/06/09 12:52:19;;;;;;;6.05;3.20;;;;;;;;;;10318658;28;20068;-63
2023/06/09 12:57:17;;;;;;;6.95;3.65;;;;;;;;;;10318280;28;20072;-63
2023/06/09 13:02:15;;;;;;;4.22;2.70;;;;;;;;;;10317631;28;20076;-64
2023/06/09 13:07:13;;;;;;;4.32;3.15;;;;;;;;;;10316320;28;20530;-63
2023/06/09 13:12:13;;;;;;;4.15;3.13;;;;;;;;;;10318635;28;20079;-63
2023/06/09 13:17:11;;;;;;;5.35;3.13;;;;;;;;;;10317522;28;20091;-63
2023/06/09 13:22:09;;;;;;;6.18;3.28;;;;;;;;;;10316276;28;20060;-64
2023/06/09 13:27:07;;;;;;;5.80;3.35;;;;;;;;;;10318114;28;20064;-63
2023/06/09 13:32:08;;;;;;;4.15;2.72;;;;;;;;;;10317881;28;20531;-63
2023/06/09 13:37:06;;;;;;;3.85;2.90;;;;;;;;;;10316801;28;20075;-63
2023/06/09 13:42:06;;;;;;;3.83;3.00;;;;;;;;;;10316696;28;20087;-63
2023/06/09 13:47:04;;;;;;;7.97;3.08;;;;;;;;;;10317616;28;20072;-63
2023/06/09 13:52:04;;;;;;;3.80;3.47;;;;;;;;;;10316638;28;20087;-63
2023/06/09 13:57:03;;;;;;;3.95;3.28;;;;;;;;;;10314710;28;20532;-63
2023/06/09 14:02:01;;;;;;;5.60;2.85;;;;;;;;;;10314488;28;20076;-63
2023/06/09 14:06:59;;;;;;;4.32;3.17;;;;;;;;;;10316974;28;20072;-62
2023/06/09 14:11:59;;;;;;;5.75;3.33;;;;;;;;;;10316571;28;20518;-62
2023/06/09 14:16:58;;;;;;;7.55;4.13;;;;;;;;;;10315701;28;20068;-63
2023/06/09 14:21:57;;;;;;;5.43;3.17;;;;;;;;;;10316247;28;20490;-63
2023/06/09 14:26:55;;;;;;;5.60;3.25;;;;;;;;;;10313418;28;20078;-62
2023/06/09 14:31:55;;;;;;;7.10;3.83;;;;;;;;;;10314311;28;20072;-63
2023/06/09 14:36:53;;;;;;;6.57;4.82;;;;;;;;;;10315881;28;20080;-63
2023/06/09 14:41:51;;;;;;;5.38;3.63;;;;;;;;;;10314010;28;20064;-63
2023/06/09 14:46:50;;;;;;;5.43;3.03;;;;;;;;;;10315036;28;20466;-63
2023/06/09 14:51:50;;;;;;;3.63;2.95;;;;;;;;;;10313016;28;20505;-63
2023/06/09 14:56:48;;;;;;;5.32;3.72;;;;;;;;;;10314616;28;20108;-62
2023/06/09 15:01:48;;;;;;;7.78;5.05;;;;;;;;;;10312979;28;20080;-62
2023/06/09 15:06:47;;;;;;;5.78;4.40;;;;;;;;;;10313725;28;20079;-62
2023/06/09 15:11:46;;;;;;;7.35;4.40;;;;;;;;;;10314180;28;20083;-62
2023/06/09 15:16:45;;;;;;;5.57;3.22;;;;;;;;;;10311898;28;20124;-63
2023/06/09 15:21:43;;;;;;;3.55;3.25;;;;;;;;;;10300580;28;20079;-63
2023/06/09 15:26:41;;;;;;;7.25;4.38;;;;;;;;;;10305705;28;20071;-62
2023/06/09 15:31:41;;;;;;;4.05;3.40;;;;;;;;;;10305479;28;20079;-63
2023/06/09 15:36:39;;;;;;;3.25;2.75;;;;;;;;;;10310652;28;20497;-62
2023/06/09 15:41:37;;;;;;;5.43;4.32;;;;;;;;;;10308483;28;20064;-63
2023/06/09 15:46:36;;;;;;;4.90;3.13;;;;;;;;;;10309622;28;20063;-63
2023/06/09 15:51:36;;;;;;;4.72;3.53;;;;;;;;;;10311823;28;20087;-63
2023/06/09 15:56:34;;;;;;;4.30;3.58;;;;;;;;;;10313351;28;20079;-63
2023/06/09 16:01:32;;;;;;;7.45;4.80;;;;;;;;;;10312180;28;20505;-63
2023/06/09 16:06:31;;;;;;;4.07;3.10;;;;;;;;;;10313806;28;20068;-62
2023/06/09 16:11:30;;;;;;;4.20;3.80;;;;;;;;;;10313305;28;20202;-63
2023/06/09 16:16:28;;;;;;;7.47;4.85;;;;;;;;;;10313134;28;20071;-63
2023/06/09 16:21:27;;;;;;;7.50;6.53;;;;;;;;;;10313335;28;20072;-63
2023/06/09 16:26:26;;;;;;;8.18;4.15;;;;;;;;;;10312153;28;20072;-62
2023/06/09 16:31:27;;;;;;;8.02;4.13;;;;;;;;;;10310847;28;20462;-63
2023/06/09 16:36:25;;;;;;;4.28;3.88;;;;;;;;;;10312553;28;20068;-62
2023/06/09 16:41:23;;;;;;;10.57;3.67;;;;;;;;;;10313542;28;20485;-62
2023/06/09 16:46:22;;;;;;;7.35;6.25;;;;;;;;;;10318394;28;20068;-62
2023/06/09 16:51:21;;;;;;;14.52;11.90;;;;;;;;;;10319675;28;20474;-62
2023/06/09 16:56:19;;;;;;;7.47;5.63;;;;;;;;;;10316253;28;20469;-63
2023/06/09 17:01:18;;;;;;;12.25;7.70;;;;;;;;;;10319002;28;20076;-62
2023/06/09 17:06:16;;;;;;;8.95;3.30;;;;;;;;;;10318715;28;20442;-62
2023/06/09 17:11:15;;;;;;;13.48;12.07;;;;;;;;;;10318371;28;20509;-62
2023/06/09 17:16:14;;;;;;;10.90;9.88;;;;;;;;;;10318664;28;20533;-62
2023/06/09 17:21:12;;;;;;;16.52;15.02;;;;;;;;;;10316499;28;20075;-62
2023/06/09 17:26:10;;;;;;;21.23;16.35;;;;;;;;;;10316354;28;20083;-63
2023/06/09 17:31:10;;;;;;;31.13;18.33;;;;;;;;;;10317098;28;20076;-62
2023/06/09 17:36:09;;;;;;;10.68;6.47;;;;;;;;;;10318030;28;20083;-63
2023/06/09 17:41:07;;;;;;;24.65;19.42;;;;;;;;;;10315280;28;20060;-62
2023/06/09 17:46:05;;;;;;;10.77;5.78;;;;;;;;;;10315438;28;20118;-62
2023/06/09 17:51:05;;;;;;;12.48;7.57;;;;;;;;;;10315099;28;20510;-62
2023/06/09 17:56:03;;;;;;;10.45;9.48;;;;;;;;;;10316722;28;20068;-62
2023/06/09 18:01:01;;;;;;;17.80;16.10;;;;;;;;;;10315984;28;20068;-62
2023/06/09 18:06:00;;;;;;;14.38;12.60;;;;;;;;;;10313412;28;20064;-62
2023/06/09 18:10:59;;;;;;;11.05;7.70;;;;;;;;;;10316355;28;20076;-62
2023/06/09 18:15:57;;;;;;;10.23;7.65;;;;;;;;;;10315640;28;20076;-62
2023/06/09 18:20:56;;;;;;;8.38;7.20;;;;;;;;;;10314838;28;20064;-62
2023/06/09 18:25:55;;;;;;;9.52;6.43;;;;;;;;;;10316265;28;20084;-62
2023/06/09 18:30:54;;;;;;;7.38;4.57;;;;;;;;;;10312726;28;20072;-62
2023/06/09 18:35:55;;;;;;;4.05;3.38;;;;;;;;;;10312320;28;20067;-61
2023/06/09 18:40:53;;;;;;;4.63;4.07;;;;;;;;;;10315430;28;20072;-62
2023/06/09 18:45:51;;;;;;;5.03;4.07;;;;;;;;;;10314722;28;20067;-62
2023/06/09 18:50:52;;;;;;;7.20;3.40;;;;;;;;;;10314390;28;20064;-62
2023/06/09 18:55:50;;;;;;;4.65;3.42;;;;;;;;;;10312323;28;20138;-62
2023/06/09 19:00:48;;;;;;;5.97;3.63;;;;;;;;;;10311984;28;20080;-62
2023/06/09 19:05:46;;;;;;;5.50;3.58;;;;;;;;;;10314332;28;20068;-61
2023/06/09 19:10:46;;;;;;;4.00;3.30;;;;;;;;;;10313270;28;20454;-62
2023/06/09 19:15:44;;;;;;;4.38;3.47;;;;;;;;;;10313284;28;20076;-62
2023/06/09 19:20:46;;;;;;;7.93;3.13;;;;;;;;;;10312391;28;20068;-62
2023/06/09 19:25:45;;;;;;;4.38;3.30;;;;;;;;;;10312445;28;20087;-62
2023/06/09 19:30:44;;;;;;;9.23;3.08;;;;;;;;;;10312969;28;20067;-62
2023/06/09 19:35:43;;;;;;;4.40;3.30;;;;;;;;;;10313689;28;20079;-62
2023/06/09 19:40:41;;;;;;;7.57;3.05;;;;;;;;;;10303739;28;20076;-62
2023/06/09 19:45:43;;;;;;;3.53;3.20;;;;;;;;;;10312654;28;20072;-62
2023/06/09 19:50:43;;;;;;;4.57;3.58;;;;;;;;;;10313661;28;20072;-63
2023/06/09 19:55:41;;;;;;;3.65;3.30;;;;;;;;;;10313495;28;20500;-63
2023/06/09 20:00:41;;;;;;;4.90;3.17;;;;;;;;;;10310752;28;20075;-61
2023/06/09 20:05:39;;;;;;;5.20;2.85;;;;;;;;;;10313334;28;20095;-62
2023/06/09 20:10:37;;;;;;;10.77;4.78;;;;;;;;;;10313384;28;20083;-62
2023/06/09 20:15:35;;;;;;;5.13;3.20;;;;;;;;;;10312339;28;20072;-62
2023/06/09 20:20:35;;;;;;;5.43;3.60;;;;;;;;;;10318327;28;20072;-62
2023/06/09 20:25:33;;;;;;;6.90;3.10;;;;;;;;;;10318586;28;20087;-62
2023/06/09 20:30:31;;;;;;;4.70;3.60;;;;;;;;;;10315105;28;20076;-61
2023/06/09 20:35:30;;;;;;;4.45;3.40;;;;;;;;;;10311890;28;20083;-62
2023/06/09 20:40:29;;;;;;;4.65;3.10;;;;;;;;;;10317958;28;20068;-62
2023/06/09 20:45:32;;;;;;;6.80;3.40;;;;;;;;;;10314692;28;20076;-61
2023/06/09 20:50:31;;;;;;;3.08;2.58;;;;;;;;;;10314986;28;20048;-62
2023/06/09 20:55:31;;;;;;;4.28;2.90;;;;;;;;;;10315623;28;20074;-62
2023/06/09 21:00:30;;;;;;;5.97;3.53;;;;;;;;;;10315311;28;20249;-62
2023/06/09 21:05:28;;;;;;;6.32;3.42;;;;;;;;;;10315857;28;20068;-61
2023/06/09 21:10:26;;;;;;;4.07;3.08;;;;;;;;;;10316365;28;20067;-61
2023/06/09 21:15:26;;;;;;;3.30;2.67;;;;;;;;;;10310601;28;20548;-61
2023/06/09 21:20:25;;;;;;;4.65;3.45;;;;;;;;;;10314672;28;20076;-62
2023/06/09 21:25:23;;;;;;;6.32;2.85;;;;;;;;;;10316503;28;20075;-62
2023/06/09 21:30:21;;;;;;;3.65;3.03;;;;;;;;;;10318236;28;20072;-62
2023/06/09 21:35:21;;;;;;;3.20;2.90;;;;;;;;;;10315137;28;20106;-61
2023/06/09 21:46:15;;;;;;;;;;;;;;;;;;10311996;28;20080;-61
2023/06/09 21:51:15;;;;;;;3.47;2.85;;;;;;;;;;10316611;28;19966;-62
2023/06/09 21:56:14;;;;;;;4.18;3.03;;;;;;;;;;10314084;28;20080;-61
2023/06/09 22:01:12;;;;;;;6.10;3.45;;;;;;;;;;10314438;28;20083;-61
2023/06/09 22:06:11;;;;;;;5.50;3.47;;;;;;;;;;10316660;28;20068;-61
2023/06/09 22:11:10;;;;;;;3.58;3.28;;;;;;;;;;10316612;28;20461;-62
2023/06/09 22:16:08;;;;;;;14.25;6.05;;;;;;;;;;10315496;28;20072;-62
2023/06/09 22:21:07;;;;;;;7.68;4.07;;;;;;;;;;10315769;28;20473;-62
2023/06/09 22:26:05;;;;;;;4.65;3.92;;;;;;;;;;10313826;28;20071;-61
2023/06/09 22:31:05;;;;;;;4.25;3.35;;;;;;;;;;10315594;28;20071;-61
2023/06/09 22:36:04;;;;;;;8.90;5.20;;;;;;;;;;10311188;28;20059;-62
2023/06/09 22:41:04;;;;;;;11.30;5.75;;;;;;;;;;10314997;28;20624;-62
2023/06/09 22:46:03;;;;;;;10.82;5.18;;;;;;;;;;10311047;28;20579;-62
2023/06/09 22:51:02;;;;;;;10.73;4.85;;;;;;;;;;10313864;28;20083;-62
2023/06/09 22:56:01;;;;;;;9.82;4.97;;;;;;;;;;10311941;28;20485;-62
2023/06/09 23:00:59;;;;;;;5.50;4.72;;;;;;;;;;10313766;28;20071;-62
2023/06/09 23:05:59;;;;;;;9.48;5.40;;;;;;;;;;10314537;28;20075;-62
2023/06/09 23:10:59;;;;;;;11.27;4.90;;;;;;;;;;10314267;28;20501;-62
2023/06/09 23:15:57;;;;;;;9.30;5.22;;;;;;;;;;10315007;28;20072;-62
2023/06/09 23:20:56;;;;;;;4.63;4.05;;;;;;;;;;10308046;28;20079;-62
2023/06/09 23:25:54;;;;;;;9.57;4.55;;;;;;;;;;10313435;28;20079;-62
2023/06/09 23:30:55;;;;;;;6.80;4.68;;;;;;;;;;10314107;28;20075;-62
2023/06/09 23:35:53;;;;;;;7.07;4.75;;;;;;;;;;10314335;28;20076;-62
2023/06/09 23:40:52;;;;;;;7.75;3.90;;;;;;;;;;10314023;28;20680;-62
2023/06/09 23:45:52;;;;;;;5.15;3.45;;;;;;;;;;10311374;28;20064;-63
2023/06/09 23:50:52;;;;;;;10.90;3.88;;;;;;;;;;10311439;28;20084;-62
2023/06/09 23:55:53;;;;;;;5.78;4.10;;;;;;;;;;10319252;28;20556;-62
